createdAt,value
2018-04-18T00:00:54.537Z,93.93
2018-04-18T00:01:54.542Z,93.44
2018-04-18T00:02:54.560Z,93.83
2018-04-18T00:03:54.673Z,93.73
2018-04-18T00:04:54.588Z,93.73
2018-04-18T00:05:54.720Z,93.73
2018-04-18T00:06:54.735Z,93.73
2018-04-18T00:07:54.620Z,93.93
2018-04-18T00:08:54.741Z,94.21
2018-04-18T00:09:54.655Z,93.59
2018-04-18T00:10:54.672Z,93.83
2018-04-18T00:11:54.806Z,93.63
2018-04-18T00:12:54.828Z,93.44
2018-04-18T00:13:54.811Z,93.73
2018-04-18T00:14:54.845Z,94.21
2018-04-18T00:15:54.859Z,93.63
2018-04-18T00:16:54.870Z,93.93
2018-04-18T00:17:54.886Z,93.83
2018-04-18T00:18:54.998Z,93.73
2018-04-18T00:19:54.790Z,93.73
2018-04-18T00:20:54.925Z,93.63
2018-04-18T00:21:54.821Z,94.07
2018-04-18T00:22:54.832Z,93.73
2018-04-18T00:23:54.967Z,93.88
2018-04-18T00:24:55.079Z,93.78
2018-04-18T00:25:54.996Z,93.69
2018-04-18T00:26:55.050Z,94.40
2018-04-18T00:27:54.895Z,94.17
2018-04-18T00:28:54.918Z,93.88
2018-04-18T00:29:55.021Z,94.17
2018-04-18T00:30:55.065Z,93.88
2018-04-18T00:31:54.954Z,93.59
2018-04-18T00:32:55.090Z,94.35
2018-04-18T00:33:54.972Z,93.78
2018-04-18T00:34:55.110Z,93.98
2018-04-18T00:35:55.129Z,94.07
2018-04-18T00:36:55.141Z,93.98
2018-04-18T00:37:55.036Z,93.98
2018-04-18T00:38:55.053Z,93.88
2018-04-18T00:39:55.074Z,93.98
2018-04-18T00:40:55.301Z,94.55
2018-04-18T00:41:55.210Z,94.74
2018-04-18T00:42:55.226Z,93.78
2018-04-18T00:43:55.237Z,94.45
2018-04-18T00:44:55.129Z,93.88
2018-04-18T00:45:55.363Z,94.17
2018-04-18T00:46:55.149Z,93.98
2018-04-18T00:47:55.179Z,93.98
2018-04-18T00:48:55.304Z,94.79
2018-04-18T00:49:55.317Z,93.93
2018-04-18T00:50:55.317Z,93.74
2018-04-18T00:51:55.223Z,93.78
2018-04-18T00:52:55.239Z,93.98
2018-04-18T00:53:55.374Z,94.55
2018-04-18T00:54:55.257Z,94.64
2018-04-18T00:55:55.288Z,93.88
2018-04-18T00:56:55.405Z,94.45
2018-04-18T00:57:55.429Z,94.26
2018-04-18T00:59:55.457Z,93.59
2018-04-18T01:00:55.349Z,93.88
2018-04-18T01:01:55.579Z,93.98
2018-04-18T01:02:55.496Z,94.26
2018-04-18T01:03:55.392Z,94.45
2018-04-18T01:04:55.407Z,93.98
2018-04-18T01:05:55.415Z,94.07
2018-04-18T01:06:55.647Z,93.49
2018-04-18T01:07:55.559Z,94.45
2018-04-18T01:08:55.453Z,93.59
2018-04-18T01:09:55.458Z,94.35
2018-04-18T01:10:55.605Z,93.69
2018-04-18T01:11:55.593Z,94.35
2018-04-18T01:12:55.626Z,94.35
2018-04-18T01:13:55.643Z,94.17
2018-04-18T01:14:55.552Z,93.88
2018-04-18T01:15:55.742Z,93.26
2018-04-18T01:16:55.669Z,94.35
2018-04-18T01:17:55.697Z,94.21
2018-04-18T01:18:55.590Z,94.12
2018-04-18T01:19:55.612Z,94.02
2018-04-18T01:20:55.735Z,93.83
2018-04-18T01:21:55.737Z,94.31
2018-04-18T01:22:55.759Z,93.93
2018-04-18T01:23:55.654Z,94.21
2018-04-18T01:24:55.786Z,93.64
2018-04-18T01:25:55.803Z,94.21
2018-04-18T01:26:55.963Z,93.83
2018-04-18T01:27:55.715Z,93.64
2018-04-18T01:28:55.717Z,94.12
2018-04-18T01:29:55.852Z,93.64
2018-04-18T01:30:55.758Z,93.64
2018-04-18T01:31:56.252Z,93.83
2018-04-18T01:32:55.763Z,94.12
2018-04-18T01:33:55.789Z,93.83
2018-04-18T01:34:55.923Z,93.64
2018-04-18T01:35:55.806Z,94.12
2018-04-18T01:36:55.829Z,94.21
2018-04-18T01:37:55.846Z,93.74
2018-04-18T01:38:55.974Z,94.31
2018-04-18T01:39:55.983Z,93.64
2018-04-18T01:40:55.998Z,93.88
2018-04-18T01:41:55.883Z,94.69
2018-04-18T01:42:55.906Z,93.93
2018-04-18T01:43:56.012Z,93.83
2018-04-18T01:44:56.052Z,93.93
2018-04-18T01:45:56.067Z,93.93
2018-04-18T01:46:55.966Z,94.40
2018-04-18T01:47:55.979Z,94.31
2018-04-18T01:48:56.206Z,94.12
2018-04-18T01:49:56.010Z,93.93
2018-04-18T01:50:56.004Z,94.50
2018-04-18T01:51:56.026Z,94.12
2018-04-18T01:52:56.030Z,93.93
2018-04-18T01:53:56.169Z,94.12
2018-04-18T01:54:56.334Z,94.50
2018-04-18T01:55:56.196Z,93.93
2018-04-18T01:56:56.094Z,93.83
2018-04-18T01:57:56.225Z,94.69
2018-04-18T01:58:56.235Z,94.74
2018-04-18T01:59:56.229Z,93.69
2018-04-18T02:00:56.266Z,94.21
2018-04-18T02:01:56.165Z,94.84
2018-04-18T02:02:56.288Z,94.26
2018-04-18T02:03:56.300Z,94.69
2018-04-18T02:04:56.190Z,94.21
2018-04-18T02:05:56.297Z,94.17
2018-04-18T02:06:56.216Z,94.55
2018-04-18T02:07:56.351Z,94.45
2018-04-18T02:08:56.242Z,94.45
2018-04-18T02:09:56.376Z,94.65
2018-04-18T02:10:56.494Z,94.55
2018-04-18T02:11:56.281Z,94.65
2018-04-18T02:12:56.417Z,94.45
2018-04-18T02:13:56.430Z,94.45
2018-04-18T02:14:56.447Z,94.65
2018-04-18T02:15:56.440Z,94.93
2018-04-18T02:16:56.468Z,94.55
2018-04-18T02:17:56.367Z,94.07
2018-04-18T02:18:56.494Z,94.84
2018-04-18T02:19:56.385Z,94.45
2018-04-18T02:20:56.498Z,94.65
2018-04-18T02:21:56.531Z,94.55
2018-04-18T02:22:56.549Z,94.45
2018-04-18T02:23:56.556Z,94.74
2018-04-18T02:24:56.574Z,94.07
2018-04-18T02:25:56.685Z,94.45
2018-04-18T02:26:56.475Z,94.26
2018-04-18T02:27:56.610Z,94.65
2018-04-18T02:28:56.515Z,94.45
2018-04-18T02:29:56.518Z,94.26
2018-04-18T02:30:56.749Z,94.55
2018-04-18T02:31:56.549Z,94.17
2018-04-18T02:32:56.554Z,94.45
2018-04-18T02:33:56.571Z,94.45
2018-04-18T02:34:56.577Z,94.65
2018-04-18T02:35:56.691Z,94.74
2018-04-18T02:36:56.595Z,94.26
2018-04-18T02:37:56.742Z,94.26
2018-04-18T02:38:56.751Z,94.84
2018-04-18T02:39:56.764Z,94.79
2018-04-18T02:40:56.759Z,94.74
2018-04-18T02:41:56.680Z,94.41
2018-04-18T02:42:56.799Z,94.50
2018-04-18T02:43:56.814Z,94.60
2018-04-18T02:44:56.825Z,94.89
2018-04-18T02:45:56.939Z,94.41
2018-04-18T02:46:56.725Z,94.79
2018-04-18T02:47:56.868Z,94.41
2018-04-18T02:48:56.875Z,94.21
2018-04-18T02:49:56.769Z,94.60
2018-04-18T02:50:56.937Z,94.60
2018-04-18T02:51:56.918Z,94.79
2018-04-18T02:52:56.816Z,94.60
2018-04-18T02:53:56.828Z,94.79
2018-04-18T02:54:56.960Z,94.70
2018-04-18T02:55:56.952Z,94.50
2018-04-18T02:56:56.851Z,94.50
2018-04-18T02:57:56.876Z,94.31
2018-04-18T02:58:56.878Z,94.79
2018-04-18T02:59:56.900Z,94.21
2018-04-18T03:00:56.907Z,94.50
2018-04-18T03:01:57.193Z,94.31
2018-04-18T03:02:56.938Z,94.79
2018-04-18T03:03:56.944Z,95.07
2018-04-18T03:04:57.082Z,94.89
2018-04-18T03:05:56.968Z,94.98
2018-04-18T03:06:57.209Z,94.70
2018-04-18T03:07:57.120Z,94.41
2018-04-18T03:08:57.015Z,94.31
2018-04-18T03:09:57.032Z,94.12
2018-04-18T03:10:57.158Z,95.07
2018-04-18T03:11:57.146Z,94.89
2018-04-18T03:12:57.184Z,94.50
2018-04-18T03:13:57.195Z,94.70
2018-04-18T03:14:57.097Z,95.46
2018-04-18T03:15:57.096Z,95.36
2018-04-18T03:16:57.386Z,95.17
2018-04-18T03:17:57.117Z,95.07
2018-04-18T03:18:57.147Z,95.07
2018-04-18T03:19:57.152Z,95.17
2018-04-18T03:20:57.288Z,94.98
2018-04-18T03:21:57.337Z,94.70
2018-04-18T03:22:57.187Z,94.79
2018-04-18T03:23:57.201Z,94.89
2018-04-18T03:24:57.212Z,94.70
2018-04-18T03:25:57.355Z,95.07
2018-04-18T03:26:57.460Z,94.50
2018-04-18T03:27:57.252Z,94.89
2018-04-18T03:28:57.385Z,94.98
2018-04-18T03:29:57.399Z,95.36
2018-04-18T03:30:57.287Z,94.79
2018-04-18T03:31:57.528Z,95.17
2018-04-18T03:32:57.437Z,94.70
2018-04-18T03:33:57.321Z,94.89
2018-04-18T03:34:57.351Z,95.17
2018-04-18T03:35:57.367Z,95.17
2018-04-18T03:36:57.638Z,94.70
2018-04-18T03:37:57.383Z,94.70
2018-04-18T03:38:57.517Z,94.79
2018-04-18T03:39:57.405Z,95.07
2018-04-18T03:40:57.539Z,94.89
2018-04-18T03:41:57.531Z,94.79
2018-04-18T03:42:57.567Z,94.89
2018-04-18T03:43:57.467Z,94.89
2018-04-18T03:44:57.591Z,94.89
2018-04-18T03:45:57.492Z,94.70
2018-04-18T03:46:57.714Z,94.79
2018-04-18T03:47:57.506Z,94.65
2018-04-18T03:48:57.519Z,94.98
2018-04-18T03:49:57.652Z,94.79
2018-04-18T03:50:57.674Z,94.79
2018-04-18T03:51:57.656Z,94.79
2018-04-18T03:52:57.569Z,94.46
2018-04-18T03:53:57.580Z,94.70
2018-04-18T03:54:57.587Z,94.98
2018-04-18T03:55:57.729Z,94.98
2018-04-18T03:56:57.709Z,94.60
2018-04-18T03:57:57.640Z,94.74
2018-04-18T03:58:57.681Z,94.55
2018-04-18T03:59:57.657Z,95.12
2018-04-18T04:00:57.679Z,94.55
2018-04-18T04:01:57.792Z,95.12
2018-04-18T04:02:57.819Z,94.84
2018-04-18T04:03:57.707Z,94.84
2018-04-18T04:04:57.841Z,94.93
2018-04-18T04:05:57.724Z,95.12
2018-04-18T04:06:57.966Z,95.12
2018-04-18T04:07:57.879Z,94.93
2018-04-18T04:08:57.890Z,94.84
2018-04-18T04:09:57.907Z,94.65
2018-04-18T04:10:57.784Z,95.32
2018-04-18T04:11:57.901Z,94.55
2018-04-18T04:12:57.830Z,95.41
2018-04-18T04:13:57.844Z,94.84
2018-04-18T04:14:57.847Z,95.61
2018-04-18T04:15:57.848Z,95.03
2018-04-18T04:16:57.973Z,94.74
2018-04-18T04:17:57.885Z,94.93
2018-04-18T04:18:58.020Z,94.74
2018-04-18T04:19:57.916Z,95.17
2018-04-18T04:20:57.924Z,94.98
2018-04-18T04:21:58.156Z,94.79
2018-04-18T04:22:57.937Z,94.79
2018-04-18T04:23:57.953Z,95.17
2018-04-18T04:24:58.095Z,95.07
2018-04-18T04:25:58.104Z,94.70
2018-04-18T04:26:58.215Z,95.07
2018-04-18T04:27:58.000Z,95.07
2018-04-18T04:28:58.139Z,94.98
2018-04-18T04:29:58.152Z,94.89
2018-04-18T04:30:58.043Z,94.70
2018-04-18T04:31:58.278Z,95.17
2018-04-18T04:32:58.189Z,94.98
2018-04-18T04:33:58.072Z,94.51
2018-04-18T04:34:58.087Z,94.98
2018-04-18T04:35:58.111Z,95.46
2018-04-18T04:36:58.166Z,95.84
2018-04-18T04:37:58.226Z,95.65
2018-04-18T04:38:58.142Z,95.75
2018-04-18T04:39:58.167Z,95.17
2018-04-18T04:40:58.172Z,95.46
2018-04-18T04:41:58.305Z,95.46
2018-04-18T04:42:58.313Z,95.27
2018-04-18T04:43:58.427Z,95.75
2018-04-18T04:44:58.233Z,94.02
2018-04-18T04:45:58.349Z,94.79
2018-04-18T04:46:58.366Z,95.07
2018-04-18T04:47:58.259Z,94.79
2018-04-18T04:48:58.360Z,94.89
2018-04-18T04:49:58.273Z,94.89
2018-04-18T04:50:58.411Z,95.36
2018-04-18T04:51:58.425Z,94.79
2018-04-18T04:52:58.435Z,95.17
2018-04-18T04:53:58.419Z,95.56
2018-04-18T04:54:58.460Z,95.17
2018-04-18T04:55:58.473Z,95.65
2018-04-18T04:56:58.484Z,95.36
2018-04-18T04:57:58.499Z,95.56
2018-04-18T04:58:58.490Z,95.17
2018-04-18T04:59:58.401Z,95.36
2018-04-18T05:00:58.417Z,94.89
2018-04-18T05:01:58.423Z,95.17
2018-04-18T05:02:58.562Z,95.84
2018-04-18T05:03:58.551Z,95.56
2018-04-18T05:04:58.584Z,95.56
2018-04-18T05:05:58.468Z,95.36
2018-04-18T05:06:58.606Z,95.36
2018-04-18T05:07:58.624Z,95.27
2018-04-18T05:08:58.601Z,95.36
2018-04-18T05:09:58.643Z,95.56
2018-04-18T05:10:58.655Z,95.56
2018-04-18T05:11:58.667Z,95.70
2018-04-18T05:12:58.571Z,95.84
2018-04-18T05:13:58.671Z,95.32
2018-04-18T05:14:58.707Z,95.46
2018-04-18T05:15:58.605Z,95.32
2018-04-18T05:16:58.619Z,95.70
2018-04-18T05:17:58.742Z,95.51
2018-04-18T05:18:58.852Z,95.51
2018-04-18T05:19:58.645Z,95.70
2018-04-18T05:20:58.781Z,95.32
2018-04-18T05:21:58.673Z,95.51
2018-04-18T05:22:58.681Z,95.32
2018-04-18T05:23:58.803Z,95.51
2018-04-18T05:24:58.828Z,95.32
2018-04-18T05:25:58.842Z,95.51
2018-04-18T05:26:58.736Z,95.41
2018-04-18T05:27:58.733Z,95.51
2018-04-18T05:28:58.978Z,95.22
2018-04-18T05:29:58.772Z,95.51
2018-04-18T05:30:58.807Z,95.51
2018-04-18T05:31:58.914Z,95.51
2018-04-18T05:32:58.920Z,95.51
2018-04-18T05:33:58.914Z,95.41
2018-04-18T05:34:58.827Z,95.32
2018-04-18T05:35:58.963Z,95.79
2018-04-18T05:36:58.970Z,95.51
2018-04-18T05:37:58.983Z,95.32
2018-04-18T05:38:58.973Z,95.41
2018-04-18T05:39:58.895Z,95.32
2018-04-18T05:40:58.901Z,94.74
2018-04-18T05:41:58.906Z,95.51
2018-04-18T05:42:58.914Z,95.03
2018-04-18T05:43:59.159Z,95.70
2018-04-18T05:44:58.954Z,95.46
2018-04-18T05:45:58.962Z,95.51
2018-04-18T05:46:58.971Z,95.51
2018-04-18T05:47:59.103Z,95.41
2018-04-18T05:48:59.095Z,95.61
2018-04-18T05:49:59.007Z,95.51
2018-04-18T05:50:59.067Z,95.70
2018-04-18T05:51:59.031Z,95.70
2018-04-18T05:52:59.165Z,95.41
2018-04-18T05:53:59.162Z,95.51
2018-04-18T05:54:59.187Z,95.51
2018-04-18T05:55:59.078Z,95.22
2018-04-18T05:56:59.214Z,95.51
2018-04-18T05:57:59.223Z,95.22
2018-04-18T05:58:59.107Z,95.41
2018-04-18T05:59:59.347Z,95.70
2018-04-18T06:00:59.258Z,95.22
2018-04-18T06:01:59.275Z,95.70
2018-04-18T06:02:59.285Z,95.22
2018-04-18T06:03:59.179Z,95.22
2018-04-18T06:04:59.277Z,95.51
2018-04-18T06:05:59.323Z,95.32
2018-04-18T06:06:59.334Z,95.51
2018-04-18T06:07:59.222Z,95.12
2018-04-18T06:08:59.356Z,95.32
2018-04-18T06:09:59.466Z,95.51
2018-04-18T06:10:59.381Z,95.32
2018-04-18T06:11:59.279Z,95.03
2018-04-18T06:12:59.407Z,95.03
2018-04-18T06:13:59.416Z,95.41
2018-04-18T06:14:59.531Z,95.22
2018-04-18T06:15:59.440Z,95.32
2018-04-18T06:16:59.349Z,95.41
2018-04-18T06:17:59.347Z,95.51
2018-04-18T06:18:59.362Z,95.70
2018-04-18T06:19:59.521Z,95.32
2018-04-18T06:20:59.371Z,95.22
2018-04-18T06:21:59.513Z,95.32
2018-04-18T06:22:59.396Z,94.84
2018-04-18T06:23:59.413Z,95.22
2018-04-18T06:24:59.583Z,95.22
2018-04-18T06:25:59.443Z,95.22
2018-04-18T06:26:59.456Z,95.22
2018-04-18T06:27:59.465Z,95.51
2018-04-18T06:28:59.470Z,95.41
2018-04-18T06:29:59.758Z,95.32
2018-04-18T06:30:59.505Z,95.89
2018-04-18T06:31:59.633Z,94.93
2018-04-18T06:32:59.522Z,95.22
2018-04-18T06:33:59.527Z,95.51
2018-04-18T06:34:59.774Z,95.22
2018-04-18T06:35:59.678Z,95.12
2018-04-18T06:36:59.692Z,95.03
2018-04-18T06:37:59.592Z,95.22
2018-04-18T06:38:59.591Z,95.32
2018-04-18T06:39:59.893Z,95.41
2018-04-18T06:40:59.620Z,95.22
2018-04-18T06:41:59.646Z,95.12
2018-04-18T06:43:59.642Z,95.51
2018-04-18T06:44:59.763Z,95.61
2018-04-18T06:45:59.673Z,95.61
2018-04-18T06:46:59.801Z,95.32
2018-04-18T06:47:59.819Z,95.70
2018-04-18T06:48:59.826Z,95.27
2018-04-18T06:49:59.943Z,95.46
2018-04-18T06:50:59.850Z,95.51
2018-04-18T06:51:59.865Z,95.70
2018-04-18T06:52:59.882Z,95.22
2018-04-18T06:53:59.892Z,95.32
2018-04-18T06:54:59.997Z,95.12
2018-04-18T06:55:59.910Z,95.32
2018-04-18T06:56:59.795Z,95.03
2018-04-18T06:57:59.932Z,95.22
2018-04-18T06:58:59.950Z,95.32
2018-04-18T07:00:00.064Z,95.22
2018-04-18T07:00:59.974Z,95.32
2018-04-18T07:01:59.987Z,95.41
2018-04-18T07:03:00.000Z,95.41
2018-04-18T07:04:00.008Z,95.41
2018-04-18T07:05:00.023Z,95.79
2018-04-18T07:06:00.130Z,95.41
2018-04-18T07:07:00.040Z,95.41
2018-04-18T07:08:00.052Z,95.46
2018-04-18T07:09:00.062Z,95.70
2018-04-18T07:09:59.951Z,95.41
2018-04-18T07:11:00.193Z,95.12
2018-04-18T07:12:00.103Z,95.22
2018-04-18T07:12:59.985Z,95.12
2018-04-18T07:14:00.126Z,95.22
2018-04-18T07:15:00.021Z,95.12
2018-04-18T07:16:00.250Z,95.12
2018-04-18T07:17:00.164Z,95.12
2018-04-18T07:18:00.173Z,95.22
2018-04-18T07:19:00.066Z,95.22
2018-04-18T07:20:00.203Z,95.12
2018-04-18T07:21:00.209Z,95.22
2018-04-18T07:22:00.192Z,95.79
2018-04-18T07:23:00.240Z,95.70
2018-04-18T07:24:00.250Z,95.79
2018-04-18T07:25:00.266Z,95.32
2018-04-18T07:26:00.262Z,95.32
2018-04-18T07:27:00.381Z,95.36
2018-04-18T07:28:00.167Z,95.17
2018-04-18T07:29:00.182Z,95.12
2018-04-18T07:30:00.311Z,95.22
2018-04-18T07:31:00.322Z,95.22
2018-04-18T07:32:00.494Z,95.79
2018-04-18T07:33:00.221Z,95.79
2018-04-18T07:34:00.356Z,95.51
2018-04-18T07:35:00.368Z,95.70
2018-04-18T07:36:00.259Z,95.46
2018-04-18T07:37:00.392Z,95.22
2018-04-18T07:38:00.554Z,95.17
2018-04-18T07:39:00.419Z,95.22
2018-04-18T07:40:00.443Z,95.41
2018-04-18T07:41:00.317Z,95.94
2018-04-18T07:42:00.451Z,95.22
2018-04-18T07:43:00.442Z,95.46
2018-04-18T07:44:00.486Z,95.27
2018-04-18T07:45:00.487Z,95.22
2018-04-18T07:46:00.504Z,95.36
2018-04-18T07:47:00.510Z,95.46
2018-04-18T07:48:00.522Z,95.27
2018-04-18T07:49:00.639Z,95.17
2018-04-18T07:50:00.421Z,95.36
2018-04-18T07:51:00.558Z,95.17
2018-04-18T07:52:00.575Z,95.17
2018-04-18T07:53:00.596Z,95.08
2018-04-18T07:54:00.567Z,95.36
2018-04-18T07:55:00.505Z,95.22
2018-04-18T07:56:00.619Z,95.51
2018-04-18T07:57:00.644Z,95.51
2018-04-18T07:58:00.647Z,95.61
2018-04-18T07:59:00.805Z,95.41
2018-04-18T08:00:00.667Z,95.32
2018-04-18T08:01:00.556Z,95.32
2018-04-18T08:02:00.572Z,95.51
2018-04-18T08:03:00.703Z,95.79
2018-04-18T08:04:00.860Z,95.22
2018-04-18T08:05:00.729Z,95.32
2018-04-18T08:06:00.736Z,95.41
2018-04-18T08:07:00.754Z,95.12
2018-04-18T08:08:00.757Z,95.89
2018-04-18T08:09:00.871Z,95.22
2018-04-18T08:10:00.654Z,95.51
2018-04-18T08:11:00.676Z,95.17
2018-04-18T08:12:00.679Z,95.61
2018-04-18T08:13:00.816Z,95.41
2018-04-18T08:14:00.813Z,95.22
2018-04-18T08:15:00.726Z,95.17
2018-04-18T08:16:00.851Z,95.56
2018-04-18T08:17:00.749Z,94.89
2018-04-18T08:18:00.881Z,95.46
2018-04-18T08:19:01.035Z,95.65
2018-04-18T08:20:00.897Z,95.84
2018-04-18T08:21:00.911Z,95.27
2018-04-18T08:22:00.795Z,95.36
2018-04-18T08:23:00.942Z,95.27
2018-04-18T08:24:00.819Z,95.27
2018-04-18T08:25:00.934Z,95.46
2018-04-18T08:26:00.967Z,95.46
2018-04-18T08:27:00.855Z,94.98
2018-04-18T08:28:00.875Z,95.36
2018-04-18T08:29:00.881Z,95.56
2018-04-18T08:30:00.990Z,95.27
2018-04-18T08:31:01.027Z,95.17
2018-04-18T08:32:01.043Z,95.17
2018-04-18T08:33:01.059Z,95.07
2018-04-18T08:34:01.076Z,95.56
2018-04-18T08:35:01.076Z,94.98
2018-04-18T08:36:01.188Z,95.56
2018-04-18T08:37:00.974Z,95.27
2018-04-18T08:38:01.109Z,94.98
2018-04-18T08:39:01.130Z,95.36
2018-04-18T08:40:01.134Z,95.27
2018-04-18T08:41:01.293Z,95.27
2018-04-18T08:42:01.037Z,95.46
2018-04-18T08:43:01.167Z,95.27
2018-04-18T08:44:01.055Z,95.27
2018-04-18T08:45:01.191Z,95.07
2018-04-18T08:46:01.352Z,95.07
2018-04-18T08:47:01.225Z,95.27
2018-04-18T08:48:01.100Z,95.27
2018-04-18T08:49:01.237Z,95.07
2018-04-18T08:50:01.252Z,95.94
2018-04-18T08:51:01.368Z,95.75
2018-04-18T08:52:01.149Z,95.17
2018-04-18T08:53:01.161Z,95.36
2018-04-18T08:54:01.184Z,95.17
2018-04-18T08:55:01.188Z,95.17
2018-04-18T08:56:01.428Z,95.56
2018-04-18T08:57:01.339Z,95.56
2018-04-18T08:58:01.351Z,95.84
2018-04-18T09:00:01.243Z,95.17
2018-04-18T09:01:01.488Z,95.41
2018-04-18T09:02:01.266Z,95.27
2018-04-18T09:03:01.278Z,95.56
2018-04-18T09:04:01.297Z,95.17
2018-04-18T09:05:01.322Z,95.36
2018-04-18T09:06:01.420Z,95.27
2018-04-18T09:07:01.448Z,95.56
2018-04-18T09:08:01.461Z,95.36
2018-04-18T09:09:01.475Z,94.98
2018-04-18T09:10:01.488Z,95.27
2018-04-18T09:11:01.479Z,95.27
2018-04-18T09:12:01.519Z,95.36
2018-04-18T09:13:01.523Z,95.17
2018-04-18T09:14:01.539Z,94.98
2018-04-18T09:15:01.430Z,95.27
2018-04-18T09:16:01.580Z,95.17
2018-04-18T09:17:01.574Z,95.07
2018-04-18T09:18:01.469Z,95.27
2018-04-18T09:19:01.486Z,95.46
2018-04-18T09:20:01.501Z,95.27
2018-04-18T09:21:01.768Z,95.56
2018-04-18T09:22:01.632Z,95.27
2018-04-18T09:23:01.560Z,95.56
2018-04-18T09:24:01.653Z,95.07
2018-04-18T09:25:01.543Z,95.27
2018-04-18T09:26:01.826Z,95.27
2018-04-18T09:27:01.688Z,95.07
2018-04-18T09:28:01.580Z,95.56
2018-04-18T09:29:01.715Z,95.27
2018-04-18T09:30:01.728Z,95.07
2018-04-18T09:31:01.756Z,95.07
2018-04-18T09:32:01.636Z,94.89
2018-04-18T09:33:01.760Z,94.98
2018-04-18T09:34:01.659Z,95.07
2018-04-18T09:35:01.783Z,95.07
2018-04-18T09:36:01.773Z,95.07
2018-04-18T09:37:01.809Z,95.36
2018-04-18T09:38:01.819Z,95.41
2018-04-18T09:39:01.830Z,95.12
2018-04-18T09:40:01.846Z,95.51
2018-04-18T09:41:01.836Z,95.61
2018-04-18T09:42:01.865Z,95.51
2018-04-18T09:43:01.878Z,95.51
2018-04-18T09:44:01.890Z,95.79
2018-04-18T09:45:01.775Z,95.36
2018-04-18T09:46:01.894Z,94.98
2018-04-18T09:47:01.928Z,95.65
2018-04-18T09:48:01.945Z,94.89
2018-04-18T09:49:01.835Z,94.84
2018-04-18T09:50:01.971Z,95.51
2018-04-18T09:51:01.953Z,95.12
2018-04-18T09:52:01.865Z,94.93
2018-04-18T09:53:02.004Z,95.17
2018-04-18T09:54:01.907Z,95.27
2018-04-18T09:55:02.032Z,95.27
2018-04-18T09:56:02.194Z,94.79
2018-04-18T09:57:01.936Z,95.75
2018-04-18T09:58:01.949Z,95.22
2018-04-18T09:59:02.084Z,95.70
2018-04-18T10:00:02.102Z,96.56
2018-04-18T10:01:02.212Z,95.98
2018-04-18T10:02:02.126Z,96.03
2018-04-18T10:03:02.143Z,96.42
2018-04-18T10:04:02.044Z,96.03
2018-04-18T10:05:02.057Z,96.22
2018-04-18T10:06:02.219Z,96.03
2018-04-18T10:07:02.207Z,96.56
2018-04-18T10:08:02.215Z,96.27
2018-04-18T10:09:02.100Z,96.27
2018-04-18T10:10:02.124Z,96.51
2018-04-18T10:11:02.247Z,96.70
2018-04-18T10:12:02.168Z,96.80
2018-04-18T10:13:02.171Z,96.51
2018-04-18T10:14:02.184Z,96.22
2018-04-18T10:15:02.329Z,96.27
2018-04-18T10:16:02.489Z,95.89
2018-04-18T10:17:02.352Z,96.37
2018-04-18T10:18:02.247Z,97.14
2018-04-18T10:19:02.271Z,96.89
2018-04-18T10:20:02.400Z,96.70
2018-04-18T10:21:02.565Z,96.42
2018-04-18T10:22:02.430Z,97.19
2018-04-18T10:23:02.375Z,96.61
2018-04-18T10:24:02.462Z,96.51
2018-04-18T10:25:02.479Z,95.89
2018-04-18T10:26:02.467Z,96.27
2018-04-18T10:27:02.392Z,96.47
2018-04-18T10:28:02.404Z,96.94
2018-04-18T10:29:02.423Z,96.90
2018-04-18T10:30:02.439Z,95.84
2018-04-18T10:31:02.738Z,96.13
2018-04-18T10:32:02.598Z,96.13
2018-04-18T10:33:02.614Z,96.13
2018-04-18T10:34:02.503Z,95.07
2018-04-18T10:35:02.522Z,95.26
2018-04-18T10:36:02.643Z,94.45
2018-04-18T10:37:02.683Z,94.92
2018-04-18T10:38:02.582Z,94.83
2018-04-18T10:39:02.609Z,94.73
2018-04-18T10:40:02.733Z,94.78
2018-04-18T10:41:02.726Z,94.78
2018-04-18T10:42:02.773Z,94.40
2018-04-18T10:43:02.786Z,94.01
2018-04-18T10:44:02.804Z,94.10
2018-04-18T10:45:02.821Z,94.40
2018-04-18T10:46:02.939Z,93.38
2018-04-18T10:47:02.859Z,94.73
2018-04-18T10:48:02.756Z,93.38
2018-04-18T10:49:02.898Z,92.42
2018-04-18T10:50:02.782Z,90.78
2018-04-18T10:51:02.901Z,92.32
2018-04-18T10:52:02.950Z,91.46
2018-04-18T10:53:02.841Z,91.27
2018-04-18T10:54:02.987Z,92.22
2018-04-18T10:55:03.004Z,91.31
2018-04-18T10:56:03.126Z,91.02
2018-04-18T10:57:03.051Z,91.60
2018-04-18T10:58:02.943Z,90.10
2018-04-18T10:59:03.079Z,88.56
2018-04-18T11:00:02.985Z,89.33
2018-04-18T11:01:03.217Z,87.88
2018-04-18T11:02:03.014Z,86.15
2018-04-18T11:03:03.158Z,87.54
2018-04-18T11:04:03.174Z,87.16
2018-04-18T11:05:03.064Z,86.10
2018-04-18T11:06:03.363Z,84.46
2018-04-18T11:07:03.111Z,83.59
2018-04-18T11:08:03.250Z,83.63
2018-04-18T11:09:03.153Z,81.99
2018-04-18T11:10:03.180Z,80.93
2018-04-18T11:11:03.286Z,81.70
2018-04-18T11:12:03.201Z,80.83
2018-04-18T11:13:03.349Z,80.93
2018-04-18T11:14:03.373Z,80.68
2018-04-18T11:15:03.255Z,79.91
2018-04-18T11:16:03.438Z,78.75
2018-04-18T11:17:03.445Z,77.40
2018-04-18T11:18:03.330Z,78.27
2018-04-18T11:19:03.342Z,77.25
2018-04-18T11:20:03.486Z,75.99
2018-04-18T11:21:03.536Z,75.89
2018-04-18T11:22:03.399Z,75.60
2018-04-18T11:23:03.420Z,75.51
2018-04-18T11:24:03.560Z,74.44
2018-04-18T11:25:03.579Z,73.80
2018-04-18T11:26:03.748Z,73.61
2018-04-18T11:27:03.495Z,72.49
2018-04-18T11:28:03.529Z,71.23
2018-04-18T11:29:03.529Z,70.01
2018-04-18T11:30:03.677Z,69.14
2018-04-18T11:31:03.770Z,68.17
2018-04-18T11:32:03.605Z,67.98
2018-04-18T11:33:03.612Z,68.95
2018-04-18T11:34:03.653Z,67.91
2018-04-18T11:35:03.669Z,67.24
2018-04-18T11:36:03.900Z,66.66
2018-04-18T11:37:03.711Z,66.82
2018-04-18T11:38:03.841Z,66.43
2018-04-18T11:39:03.864Z,66.56
2018-04-18T11:40:03.877Z,67.63
2018-04-18T11:41:04.001Z,66.66
2018-04-18T11:42:03.796Z,66.75
2018-04-18T11:43:03.937Z,66.95
2018-04-18T11:44:03.845Z,67.40
2018-04-18T11:45:03.870Z,67.21
2018-04-18T11:46:03.980Z,66.72
2018-04-18T11:47:04.016Z,65.95
2018-04-18T11:48:04.036Z,65.50
2018-04-18T11:49:04.054Z,65.08
2018-04-18T11:50:04.076Z,65.47
2018-04-18T11:51:04.231Z,66.14
2018-04-18T11:52:04.121Z,65.59
2018-04-18T11:53:04.133Z,64.92
2018-04-18T11:54:04.031Z,65.01
2018-04-18T11:55:04.061Z,64.62
2018-04-18T11:56:04.184Z,64.34
2018-04-18T11:57:04.083Z,65.01
2018-04-18T11:58:04.111Z,64.82
2018-04-18T11:59:04.132Z,64.98
2018-04-18T12:00:04.162Z,64.59
2018-04-18T12:01:04.393Z,64.79
2018-04-18T12:02:04.205Z,64.31
2018-04-18T12:03:04.331Z,65.17
2018-04-18T12:04:04.354Z,65.56
2018-04-18T12:05:04.252Z,65.37
2018-04-18T12:06:04.371Z,65.47
2018-04-18T12:07:04.410Z,66.24
2018-04-18T12:08:04.431Z,66.24
2018-04-18T12:09:04.454Z,66.11
2018-04-18T12:10:04.339Z,66.30
2018-04-18T12:11:04.519Z,66.46
2018-04-18T12:12:04.514Z,68.10
2018-04-18T12:13:04.532Z,68.88
2018-04-18T12:14:04.431Z,69.26
2018-04-18T12:15:04.448Z,70.14
2018-04-18T12:16:04.577Z,68.98
2018-04-18T12:17:04.490Z,69.26
2018-04-18T12:18:04.507Z,69.74
2018-04-18T12:19:04.516Z,69.84
2018-04-18T12:20:04.668Z,70.14
2018-04-18T12:21:04.663Z,69.74
2018-04-18T12:22:04.708Z,69.30
2018-04-18T12:23:04.630Z,69.49
2018-04-18T12:24:04.743Z,69.88
2018-04-18T12:25:04.641Z,68.75
2018-04-18T12:26:04.810Z,67.49
2018-04-18T12:27:04.684Z,67.40
2018-04-18T12:28:04.708Z,66.63
2018-04-18T12:29:04.723Z,66.98
2018-04-18T12:30:04.746Z,67.56
2018-04-18T12:31:04.977Z,68.33
2018-04-18T12:32:04.777Z,67.85
2018-04-18T12:33:04.796Z,68.01
2018-04-18T12:34:04.857Z,67.72
2018-04-18T12:35:04.844Z,67.52
2018-04-18T12:36:05.128Z,68.01
2018-04-18T12:37:04.873Z,68.33
2018-04-18T12:38:04.886Z,66.72
2018-04-18T12:39:04.911Z,64.89
2018-04-18T12:40:05.065Z,65.27
2018-04-18T12:41:05.113Z,64.79
2018-04-18T12:42:04.971Z,63.92
2018-04-18T12:43:05.113Z,63.82
2018-04-18T12:44:05.135Z,63.82
2018-04-18T12:45:05.040Z,63.92
2018-04-18T12:46:05.250Z,64.40
2018-04-18T12:47:05.066Z,64.50
2018-04-18T12:48:05.081Z,64.85
2018-04-18T12:49:05.225Z,65.14
2018-04-18T12:50:05.119Z,64.66
2018-04-18T12:51:05.342Z,64.08
2018-04-18T12:52:05.280Z,64.37
2018-04-18T12:53:05.299Z,63.31
2018-04-18T12:54:05.205Z,63.66
2018-04-18T12:55:05.227Z,64.14
2018-04-18T12:56:05.511Z,64.63